Ken T Smith — WDC8014 — position and weather

sailwx.info

Track history (hours):
 
Tides and Currents Weather Stations Pressure Air Temp Water Temp Dewpoint Dewpoint Depression Visibility Wind Speed Wind Dir Waves Ship Positions

Ken T Smith

Owner: American Commercial Lines LLC, Jeffersonville, IN. More information available from US FCC via Universal Licensing System and Coast Guard Vessel Documentation Center.

Last reported at 2017-Sep-18 07:34 UTC. Time now 2017-Sep-22 11:49 UTC.
Position N 29°33' W 090°25'.

Length 30 m.

Type: . MMSI: 367080390.

Date/timePositionNaut miles runAvg speedWind from/ knotsBaromVisibWave heightAir tempDewpointWater temp
2017-Sep-18 07:34N 29°33' W 090°25'4 3.6
2017-Sep-18 06:32N 29°34' W 090°29'1 5.6
2017-Sep-18 06:25N 29°34' W 090°29'2 5.5
2017-Sep-18 06:00N 29°34' W 090°32'3 5.2
2017-Sep-18 05:30N 29°34' W 090°35'2 4.9
2017-Sep-18 05:00N 29°35' W 090°38'2 4.7
2017-Sep-18 04:30N 29°36' W 090°40'2 4.4
2017-Sep-18 04:00N 29°37' W 090°42'3 5.0
2017-Sep-18 03:30N 29°34' W 090°43'3 5.4
2017-Sep-18 03:00N 29°32' W 090°46'3 6.0
2017-Sep-18 02:30N 29°32' W 090°49'3 6.2
2017-Sep-18 01:59N 29°32' W 090°53'3 6.4
2017-Sep-18 01:30N 29°34' W 090°56'60 5.1
2017-Sep-17 13:36N 29°49' W 092°03'1 6.3
2017-Sep-17 13:27N 29°48' W 092°04'3 6.4
2017-Sep-17 13:00N 29°47' W 092°07'3 5.8
2017-Sep-17 12:31N 29°47' W 092°10'3 5.3
2017-Sep-17 12:00N 29°47' W 092°13'1 2.7
2017-Sep-17 11:30N 29°48' W 092°15'2 4.3
2017-Sep-17 11:00N 29°49' W 092°17'2 4.3
2017-Sep-17 10:28N 29°50' W 092°19'42 5.0
2017-Sep-17 02:12N 29°56' W 093°06'1 5.4
2017-Sep-17 02:00N 29°56' W 093°08'2 5.0
2017-Sep-17 01:30N 29°57' W 093°10'3 5.5
2017-Sep-17 01:00N 29°59' W 093°12'3 5.4
2017-Sep-17 00:30N 30°01' W 093°14'3 5.1
2017-Sep-17 00:00N 30°03' W 093°16'3 5.4
2017-Sep-16 23:30N 30°05' W 093°18'2 3.9
2017-Sep-16 23:00N 30°05' W 093°20'2 4.1
2017-Sep-16 22:30N 30°04' W 093°22'3 5.8
2017-Sep-16 22:00N 30°04' W 093°25'3 6.5
2017-Sep-16 21:30N 30°04' W 093°29'3 6.4
2017-Sep-16 21:00N 30°04' W 093°33'3 6.4
2017-Sep-16 20:30N 30°04' W 093°36'3 5.9
2017-Sep-16 20:00N 30°04' W 093°40'  
2017-Sep-13 02:49N 29°29' W 094°51'2 7.2
2017-Sep-13 02:30N 29°31' W 094°53'4 7.8
2017-Sep-13 02:01N 29°34' W 094°55'4 8.0
2017-Sep-13 01:30N 29°37' W 094°58'4 8.4
2017-Sep-13 01:01N 29°41' W 094°59'4 7.5
2017-Sep-13 00:29N 29°44' W 095°02'3 7.0
2017-Sep-12 23:59N 29°47' W 095°05'1 0.0
2017-Sep-11 15:16N 29°46' W 095°05'3 1.4
2017-Sep-11 13:23N 29°44' W 095°03'1 3.4
2017-Sep-11 12:59N 29°44' W 095°01'0 0.0
2017-Sep-11 12:29N 29°44' W 095°01'0 0.0
2017-Sep-10 17:42N 29°44' W 095°01'0 1.2
2017-Sep-10 17:25N 29°44' W 095°01'0 0.0
2017-Sep-10 16:52N 29°44' W 095°01'0 0.0
2017-Sep-10 16:10N 29°44' W 095°01'0 0.0
2017-Sep-10 15:58N 29°44' W 095°01'0 0.0
2017-Sep-10 15:28N 29°44' W 095°01'0 0.0
2017-Sep-10 14:58N 29°44' W 095°01'0 0.0
2017-Sep-10 13:58N 29°44' W 095°01'0 0.0
2017-Sep-10 13:28N 29°44' W 095°01'0 0.0
2017-Sep-10 12:55N 29°44' W 095°01'0 0.0
2017-Sep-10 12:28N 29°44' W 095°01'0 0.0
2017-Sep-10 11:58N 29°44' W 095°01'0 0.0
2017-Sep-10 11:28N 29°44' W 095°01'0 0.0
2017-Sep-10 10:58N 29°44' W 095°01'0 0.0
2017-Sep-10 10:28N 29°44' W 095°01'0 0.0
2017-Sep-10 09:58N 29°44' W 095°01'0 0.0
2017-Sep-10 09:28N 29°44' W 095°01'0 0.0
2017-Sep-10 08:58N 29°44' W 095°01'0 0.0
2017-Sep-10 08:28N 29°44' W 095°01'0 0.0
2017-Sep-10 07:58N 29°44' W 095°01'0 0.0
2017-Sep-10 07:28N 29°44' W 095°01'0 0.4
2017-Sep-10 06:49N 29°44' W 095°01'0 0.0
2017-Sep-10 06:19N 29°44' W 095°01'0 0.0
2017-Sep-10 05:46N 29°44' W 095°01'0 0.0
2017-Sep-10 05:28N 29°44' W 095°01'0 0.0
2017-Sep-10 04:58N 29°44' W 095°01'0 0.0
2017-Sep-10 04:30N 29°44' W 095°01'0 0.0
2017-Sep-10 04:00N 29°44' W 095°01'0 0.0
2017-Sep-10 03:30N 29°44' W 095°01'0 0.0
2017-Sep-10 03:00N 29°44' W 095°01'0 0.0
2017-Sep-10 02:30N 29°44' W 095°01'0 0.0
2017-Sep-10 02:00N 29°44' W 095°01'0 0.0
2017-Sep-10 01:30N 29°44' W 095°01'0 0.0
2017-Sep-10 01:00N 29°44' W 095°01'0 0.0
2017-Sep-10 00:30N 29°44' W 095°01'0 0.0
2017-Sep-10 00:00N 29°44' W 095°01'0 0.0
2017-Sep-09 23:30N 29°44' W 095°01'0 0.0
2017-Sep-09 23:00N 29°44' W 095°01'0 0.3
2017-Sep-09 22:30N 29°44' W 095°01'2 3.1
2017-Sep-09 22:00N 29°44' W 095°03'2 3.9
2017-Sep-09 21:28N 29°46' W 095°05'1 0.7
2017-Sep-09 20:29N 29°46' W 095°05'  
Track history (hours):
 
Tides and Currents Weather Stations Pressure Air Temp Water Temp Dewpoint Dewpoint Depression Visibility Wind Speed Wind Dir Waves Ship Positions

Ken T Smith

Owner: American Commercial Lines LLC, Jeffersonville, IN. More information available from US FCC via Universal Licensing System and Coast Guard Vessel Documentation Center.

Last reported at 2017-Sep-18 07:34 UTC. Time now 2017-Sep-22 11:49 UTC.
Position N 29°33' W 090°25'.

Length 30 m.

Type: . MMSI: 367080390.

Date/timePositionNaut miles runAvg speedWind from/ knotsBaromVisibWave heightAir tempDewpointWater temp
2017-Sep-18 07:34N 29°33' W 090°25'4 3.6
2017-Sep-18 06:32N 29°34' W 090°29'1 5.6
2017-Sep-18 06:25N 29°34' W 090°29'2 5.5
2017-Sep-18 06:00N 29°34' W 090°32'3 5.2
2017-Sep-18 05:30N 29°34' W 090°35'2 4.9
2017-Sep-18 05:00N 29°35' W 090°38'2 4.7
2017-Sep-18 04:30N 29°36' W 090°40'2 4.4
2017-Sep-18 04:00N 29°37' W 090°42'3 5.0
2017-Sep-18 03:30N 29°34' W 090°43'3 5.4
2017-Sep-18 03:00N 29°32' W 090°46'3 6.0
2017-Sep-18 02:30N 29°32' W 090°49'3 6.2
2017-Sep-18 01:59N 29°32' W 090°53'3 6.4
2017-Sep-18 01:30N 29°34' W 090°56'60 5.1
2017-Sep-17 13:36N 29°49' W 092°03'1 6.3
2017-Sep-17 13:27N 29°48' W 092°04'3 6.4
2017-Sep-17 13:00N 29°47' W 092°07'3 5.8
2017-Sep-17 12:31N 29°47' W 092°10'3 5.3
2017-Sep-17 12:00N 29°47' W 092°13'1 2.7
2017-Sep-17 11:30N 29°48' W 092°15'2 4.3
2017-Sep-17 11:00N 29°49' W 092°17'2 4.3
2017-Sep-17 10:28N 29°50' W 092°19'42 5.0
2017-Sep-17 02:12N 29°56' W 093°06'1 5.4
2017-Sep-17 02:00N 29°56' W 093°08'2 5.0
2017-Sep-17 01:30N 29°57' W 093°10'3 5.5
2017-Sep-17 01:00N 29°59' W 093°12'3 5.4
2017-Sep-17 00:30N 30°01' W 093°14'3 5.1
2017-Sep-17 00:00N 30°03' W 093°16'3 5.4
2017-Sep-16 23:30N 30°05' W 093°18'2 3.9
2017-Sep-16 23:00N 30°05' W 093°20'2 4.1
2017-Sep-16 22:30N 30°04' W 093°22'3 5.8
2017-Sep-16 22:00N 30°04' W 093°25'3 6.5
2017-Sep-16 21:30N 30°04' W 093°29'3 6.4
2017-Sep-16 21:00N 30°04' W 093°33'3 6.4
2017-Sep-16 20:30N 30°04' W 093°36'3 5.9
2017-Sep-16 20:00N 30°04' W 093°40'  
2017-Sep-13 02:49N 29°29' W 094°51'2 7.2
2017-Sep-13 02:30N 29°31' W 094°53'4 7.8
2017-Sep-13 02:01N 29°34' W 094°55'4 8.0
2017-Sep-13 01:30N 29°37' W 094°58'4 8.4
2017-Sep-13 01:01N 29°41' W 094°59'4 7.5
2017-Sep-13 00:29N 29°44' W 095°02'3 7.0
2017-Sep-12 23:59N 29°47' W 095°05'1 0.0
2017-Sep-11 15:16N 29°46' W 095°05'3 1.4
2017-Sep-11 13:23N 29°44' W 095°03'1 3.4
2017-Sep-11 12:59N 29°44' W 095°01'0 0.0
2017-Sep-11 12:29N 29°44' W 095°01'0 0.0
2017-Sep-10 17:42N 29°44' W 095°01'0 1.2
2017-Sep-10 17:25N 29°44' W 095°01'0 0.0
2017-Sep-10 16:52N 29°44' W 095°01'0 0.0
2017-Sep-10 16:10N 29°44' W 095°01'0 0.0
2017-Sep-10 15:58N 29°44' W 095°01'0 0.0
2017-Sep-10 15:28N 29°44' W 095°01'0 0.0
2017-Sep-10 14:58N 29°44' W 095°01'0 0.0
2017-Sep-10 13:58N 29°44' W 095°01'0 0.0
2017-Sep-10 13:28N 29°44' W 095°01'0 0.0
2017-Sep-10 12:55N 29°44' W 095°01'0 0.0
2017-Sep-10 12:28N 29°44' W 095°01'0 0.0
2017-Sep-10 11:58N 29°44' W 095°01'0 0.0
2017-Sep-10 11:28N 29°44' W 095°01'0 0.0
2017-Sep-10 10:58N 29°44' W 095°01'0 0.0
2017-Sep-10 10:28N 29°44' W 095°01'0 0.0
2017-Sep-10 09:58N 29°44' W 095°01'0 0.0
2017-Sep-10 09:28N 29°44' W 095°01'0 0.0
2017-Sep-10 08:58N 29°44' W 095°01'0 0.0
2017-Sep-10 08:28N 29°44' W 095°01'0 0.0
2017-Sep-10 07:58N 29°44' W 095°01'0 0.0
2017-Sep-10 07:28N 29°44' W 095°01'0 0.4
2017-Sep-10 06:49N 29°44' W 095°01'0 0.0
2017-Sep-10 06:19N 29°44' W 095°01'0 0.0
2017-Sep-10 05:46N 29°44' W 095°01'0 0.0
2017-Sep-10 05:28N 29°44' W 095°01'0 0.0
2017-Sep-10 04:58N 29°44' W 095°01'0 0.0
2017-Sep-10 04:30N 29°44' W 095°01'0 0.0
2017-Sep-10 04:00N 29°44' W 095°01'0 0.0
2017-Sep-10 03:30N 29°44' W 095°01'0 0.0
2017-Sep-10 03:00N 29°44' W 095°01'0 0.0
2017-Sep-10 02:30N 29°44' W 095°01'0 0.0
2017-Sep-10 02:00N 29°44' W 095°01'0 0.0
2017-Sep-10 01:30N 29°44' W 095°01'0 0.0
2017-Sep-10 01:00N 29°44' W 095°01'0 0.0
2017-Sep-10 00:30N 29°44' W 095°01'0 0.0
2017-Sep-10 00:00N 29°44' W 095°01'0 0.0
2017-Sep-09 23:30N 29°44' W 095°01'0 0.0
2017-Sep-09 23:00N 29°44' W 095°01'0 0.3
2017-Sep-09 22:30N 29°44' W 095°01'2 3.1
2017-Sep-09 22:00N 29°44' W 095°03'2 3.9
2017-Sep-09 21:28N 29°46' W 095°05'1 0.7
2017-Sep-09 20:29N 29°46' W 095°05'  

Dump ship's entire track history